Arnold AFB, Tennessee
Current Conditions -  °F | °C
As of 8:15 AM on Monday 22 Dec 2014 (Local Time) from KTHA Reporting Station
Overcast Overcast  
Wind Chill: 42°   Ceiling: 1900
Heat Index: 46°   Visibility: 10mi
Dew Point: 43°   Wind: 9mph
Humidity: 87%   Direction: 150°SSE
Pressure: 29.95"   Gusts: NA
Location:  35.36°N, 86.21°W
Report Text: KTHA 221415Z AUTO 15008KT 10SM OVC019 08/06 A2995 RMK
Loading
Personal Weather Stations






























Interactive Weather Map New forecast layout! Learn more

10-Day Weather Forecast

Advertisements
Track Severe Weather on mobile